Terminal Aerodrome Forecast
Issued by NWS

Home | Current Version | Previous Version | Text Only | Print | Product List | Glossary On
Versions: 1 2 3 4 5 6 7 8 9 10 11 12 13 14 15 16 17 18 19 20 21 22 23 24 25 26 27 28 29 30 31 32 33 34 35 36 37 38 39 40 41 42 43 44 45 46 47 48 49
000
FTUS41 KBOX 240824 AAA
TAFMHT
TAF AMD
KMHT 240824Z 2408/2506 34005KT P6SM SCT006 BKN025 OVC050
     FM241200 34007KT P6SM BKN025 BKN050 BKN120
     FM241400 35007KT P6SM BKN030 BKN120
     FM241700 34006KT P6SM SCT050
     FM241900 34006KT P6SM SCT250=

USA.gov is the U.S. government's official web portal to all federal, state and local government web resources and services.